< < Back
Terminal Aerodrome Forecast


Current Version              Previous Versions:   1  2  3  4  5  6  7  8  9  

Terminal Aerodrome Forecast

991
FTUS42 KJAX 302347
TAFSSI
TAF
KSSI 302347Z 3100/3124 12008KT P6SM VCSH SCT015 BKN030
      TEMPO 3100/3102 5SM SHRA BKN015
     FM310400 13006KT P6SM VCSH SCT025 BKN100
     FM311500 10009KT P6SM VCTS SCT020 BKN040CB=

Latest METAR

325
SAUS70 KWBC 310400 RRE
MTRSSI
METAR KSSI 310353Z AUTO 14005KT 10SM FEW014 FEW022 26/24 A3002 RMK AO2
SLP168 T02610239


USA.gov is the U.S. government's official web portal to all federal, state and local government web resources and services.